Airport View

Enter AWOS ICAO identifier for current METAR.

ex. KFNL

KOKV 191915Z AUTO 11004KT 10SM SCT038 BKN075 OVC110 26/22 A2977 RMK AO2 LTG DSNT W

19 Jun 2019 19:27

Frequency: 124.85

Phone: 540-662-6970

Other Area AWOS: KFRR - KMRB - KJYO - KLUA

TAF KMRB 191737Z 1918/2018 04004KT P6SM SCT020 BKN050 FM191900 15004KT P6SM -SHRA VCTS SCT025 BKN080CB FM192300 19004KT P6SM -SHRA SCT030 BKN130 FM200000 VRB03KT P6SM SCT025 BKN140 FM200600 VRB03KT 4SM BR SCT020 BKN150